sensor_id;sensor_type;location;lat;lon;timestamp;P1;durP1;ratioP1;P2;durP2;ratioP2
28170;SDS011;15458;53.346;-1.688;2023-04-03T00:00:56;7.18;;;2.55;;
28170;SDS011;15458;53.346;-1.688;2023-04-03T00:03:22;5.15;;;2.28;;
28170;SDS011;15458;53.346;-1.688;2023-04-03T00:05:47;8.75;;;2.28;;
28170;SDS011;15458;53.346;-1.688;2023-04-03T00:08:13;8.98;;;2.20;;
28170;SDS011;15458;53.346;-1.688;2023-04-03T00:10:39;4.07;;;2.38;;
28170;SDS011;15458;53.346;-1.688;2023-04-03T00:13:05;12.93;;;2.35;;
28170;SDS011;15458;53.346;-1.688;2023-04-03T00:15:32;8.88;;;2.38;;
28170;SDS011;15458;53.346;-1.688;2023-04-03T00:17:59;7.60;;;2.30;;
28170;SDS011;15458;53.346;-1.688;2023-04-03T00:20:25;8.50;;;2.58;;
28170;SDS011;15458;53.346;-1.688;2023-04-03T00:22:52;6.18;;;1.92;;
28170;SDS011;15458;53.346;-1.688;2023-04-03T00:25:17;5.28;;;2.17;;
28170;SDS011;15458;53.346;-1.688;2023-04-03T00:27:43;5.95;;;2.50;;
28170;SDS011;15458;53.346;-1.688;2023-04-03T00:30:10;6.60;;;2.10;;
28170;SDS011;15458;53.346;-1.688;2023-04-03T00:32:38;7.05;;;2.15;;
28170;SDS011;15458;53.346;-1.688;2023-04-03T00:35:04;7.15;;;2.13;;
28170;SDS011;15458;53.346;-1.688;2023-04-03T00:37:30;11.93;;;2.13;;
28170;SDS011;15458;53.346;-1.688;2023-04-03T00:39:56;10.20;;;2.28;;
28170;SDS011;15458;53.346;-1.688;2023-04-03T00:42:22;6.68;;;2.25;;
28170;SDS011;15458;53.346;-1.688;2023-04-03T00:47:13;8.95;;;3.10;;
28170;SDS011;15458;53.346;-1.688;2023-04-03T00:49:42;7.35;;;2.17;;
28170;SDS011;15458;53.346;-1.688;2023-04-03T00:52:10;6.60;;;2.50;;
28170;SDS011;15458;53.346;-1.688;2023-04-03T00:57:06;7.18;;;2.75;;
28170;SDS011;15458;53.346;-1.688;2023-04-03T00:59:33;7.93;;;2.17;;
28170;SDS011;15458;53.346;-1.688;2023-04-03T01:02:03;5.07;;;2.13;;
28170;SDS011;15458;53.346;-1.688;2023-04-03T01:04:30;9.18;;;2.08;;
28170;SDS011;15458;53.346;-1.688;2023-04-03T01:07:05;6.75;;;2.75;;
28170;SDS011;15458;53.346;-1.688;2023-04-03T01:09:34;9.88;;;3.08;;
28170;SDS011;15458;53.346;-1.688;2023-04-03T01:12:20;8.13;;;3.30;;
28170;SDS011;15458;53.346;-1.688;2023-04-03T01:14:52;7.95;;;3.13;;
28170;SDS011;15458;53.346;-1.688;2023-04-03T01:17:26;4.82;;;2.17;;
28170;SDS011;15458;53.346;-1.688;2023-04-03T01:27:53;7.10;;;3.15;;
28170;SDS011;15458;53.346;-1.688;2023-04-03T01:30:20;7.43;;;2.80;;
28170;SDS011;15458;53.346;-1.688;2023-04-03T01:32:48;8.85;;;2.78;;
28170;SDS011;15458;53.346;-1.688;2023-04-03T01:35:14;6.57;;;2.35;;
28170;SDS011;15458;53.346;-1.688;2023-04-03T01:37:40;19.00;;;3.72;;
28170;SDS011;15458;53.346;-1.688;2023-04-03T01:40:06;8.88;;;2.35;;
28170;SDS011;15458;53.346;-1.688;2023-04-03T01:42:33;7.75;;;2.25;;
28170;SDS011;15458;53.346;-1.688;2023-04-03T01:44:58;4.68;;;2.30;;
28170;SDS011;15458;53.346;-1.688;2023-04-03T01:47:24;6.28;;;2.55;;
28170;SDS011;15458;53.346;-1.688;2023-04-03T01:49:50;9.95;;;2.53;;
28170;SDS011;15458;53.346;-1.688;2023-04-03T01:52:15;9.32;;;2.58;;
28170;SDS011;15458;53.346;-1.688;2023-04-03T01:54:41;7.72;;;2.55;;
28170;SDS011;15458;53.346;-1.688;2023-04-03T01:57:07;10.43;;;2.30;;
28170;SDS011;15458;53.346;-1.688;2023-04-03T01:59:32;7.47;;;2.10;;
28170;SDS011;15458;53.346;-1.688;2023-04-03T02:01:58;8.00;;;2.28;;
28170;SDS011;15458;53.346;-1.688;2023-04-03T02:04:25;6.30;;;2.60;;
28170;SDS011;15458;53.346;-1.688;2023-04-03T02:06:50;5.10;;;2.30;;
28170;SDS011;15458;53.346;-1.688;2023-04-03T02:09:16;7.43;;;2.28;;
28170;SDS011;15458;53.346;-1.688;2023-04-03T02:11:42;6.40;;;2.10;;
28170;SDS011;15458;53.346;-1.688;2023-04-03T02:14:08;7.80;;;2.10;;
28170;SDS011;15458;53.346;-1.688;2023-04-03T02:16:33;4.18;;;2.40;;
28170;SDS011;15458;53.346;-1.688;2023-04-03T02:18:59;9.98;;;2.42;;
28170;SDS011;15458;53.346;-1.688;2023-04-03T02:21:25;5.55;;;2.10;;
28170;SDS011;15458;53.346;-1.688;2023-04-03T02:23:50;6.60;;;2.10;;
28170;SDS011;15458;53.346;-1.688;2023-04-03T02:26:16;4.90;;;1.75;;
28170;SDS011;15458;53.346;-1.688;2023-04-03T02:28:42;8.07;;;2.40;;
28170;SDS011;15458;53.346;-1.688;2023-04-03T02:31:08;7.25;;;1.73;;
28170;SDS011;15458;53.346;-1.688;2023-04-03T02:33:35;2.92;;;1.80;;
28170;SDS011;15458;53.346;-1.688;2023-04-03T02:36:01;5.40;;;2.13;;
28170;SDS011;15458;53.346;-1.688;2023-04-03T02:38:28;4.40;;;1.98;;
28170;SDS011;15458;53.346;-1.688;2023-04-03T02:40:59;10.27;;;2.20;;
28170;SDS011;15458;53.346;-1.688;2023-04-03T02:43:26;10.55;;;2.30;;
28170;SDS011;15458;53.346;-1.688;2023-04-03T02:45:51;11.23;;;2.97;;
28170;SDS011;15458;53.346;-1.688;2023-04-03T02:48:17;7.82;;;2.83;;
28170;SDS011;15458;53.346;-1.688;2023-04-03T02:50:43;4.35;;;2.65;;
28170;SDS011;15458;53.346;-1.688;2023-04-03T02:53:08;6.50;;;2.92;;
28170;SDS011;15458;53.346;-1.688;2023-04-03T02:55:34;9.20;;;2.63;;
28170;SDS011;15458;53.346;-1.688;2023-04-03T02:58:00;7.80;;;2.25;;
28170;SDS011;15458;53.346;-1.688;2023-04-03T03:00:26;4.88;;;2.42;;
28170;SDS011;15458;53.346;-1.688;2023-04-03T03:02:51;9.63;;;2.83;;
28170;SDS011;15458;53.346;-1.688;2023-04-03T03:05:17;6.32;;;2.65;;
28170;SDS011;15458;53.346;-1.688;2023-04-03T03:07:43;8.25;;;3.17;;
28170;SDS011;15458;53.346;-1.688;2023-04-03T03:10:08;4.85;;;2.60;;
28170;SDS011;15458;53.346;-1.688;2023-04-03T03:12:34;7.68;;;2.97;;
28170;SDS011;15458;53.346;-1.688;2023-04-03T03:15:00;8.65;;;2.75;;
28170;SDS011;15458;53.346;-1.688;2023-04-03T03:17:25;5.78;;;2.67;;
28170;SDS011;15458;53.346;-1.688;2023-04-03T03:19:51;7.25;;;3.05;;
28170;SDS011;15458;53.346;-1.688;2023-04-03T03:22:18;4.00;;;1.75;;
28170;SDS011;15458;53.346;-1.688;2023-04-03T03:24:44;10.43;;;2.63;;
28170;SDS011;15458;53.346;-1.688;2023-04-03T03:27:10;6.90;;;2.20;;
28170;SDS011;15458;53.346;-1.688;2023-04-03T03:29:37;8.15;;;2.22;;
28170;SDS011;15458;53.346;-1.688;2023-04-03T03:32:02;6.18;;;2.28;;
28170;SDS011;15458;53.346;-1.688;2023-04-03T03:34:28;8.60;;;2.88;;
28170;SDS011;15458;53.346;-1.688;2023-04-03T03:36:54;9.27;;;3.40;;
28170;SDS011;15458;53.346;-1.688;2023-04-03T03:39:20;8.90;;;3.10;;
28170;SDS011;15458;53.346;-1.688;2023-04-03T03:41:46;4.18;;;2.38;;
28170;SDS011;15458;53.346;-1.688;2023-04-03T03:44:12;11.18;;;2.40;;
28170;SDS011;15458;53.346;-1.688;2023-04-03T03:46:38;6.25;;;2.15;;
28170;SDS011;15458;53.346;-1.688;2023-04-03T03:49:03;5.95;;;2.05;;
28170;SDS011;15458;53.346;-1.688;2023-04-03T03:51:29;10.98;;;2.40;;
28170;SDS011;15458;53.346;-1.688;2023-04-03T03:53:55;8.20;;;2.85;;
28170;SDS011;15458;53.346;-1.688;2023-04-03T03:56:20;7.47;;;2.80;;
28170;SDS011;15458;53.346;-1.688;2023-04-03T03:58:46;8.02;;;2.45;;
28170;SDS011;15458;53.346;-1.688;2023-04-03T04:01:12;10.68;;;3.78;;
28170;SDS011;15458;53.346;-1.688;2023-04-03T04:03:38;5.13;;;2.13;;
28170;SDS011;15458;53.346;-1.688;2023-04-03T04:06:04;7.00;;;2.58;;
28170;SDS011;15458;53.346;-1.688;2023-04-03T04:08:30;4.95;;;2.25;;
28170;SDS011;15458;53.346;-1.688;2023-04-03T04:10:56;7.95;;;2.25;;
28170;SDS011;15458;53.346;-1.688;2023-04-03T04:13:21;5.30;;;2.60;;
28170;SDS011;15458;53.346;-1.688;2023-04-03T04:15:47;5.00;;;2.67;;
28170;SDS011;15458;53.346;-1.688;2023-04-03T04:18:12;7.68;;;2.42;;
28170;SDS011;15458;53.346;-1.688;2023-04-03T04:20:38;8.90;;;2.10;;
28170;SDS011;15458;53.346;-1.688;2023-04-03T04:23:04;8.27;;;2.50;;
28170;SDS011;15458;53.346;-1.688;2023-04-03T04:25:29;7.60;;;2.28;;
28170;SDS011;15458;53.346;-1.688;2023-04-03T04:27:55;4.85;;;2.15;;
28170;SDS011;15458;53.346;-1.688;2023-04-03T04:30:21;6.10;;;2.20;;
28170;SDS011;15458;53.346;-1.688;2023-04-03T04:32:46;5.60;;;2.10;;
28170;SDS011;15458;53.346;-1.688;2023-04-03T04:35:12;6.13;;;2.20;;
28170;SDS011;15458;53.346;-1.688;2023-04-03T04:37:37;4.90;;;2.20;;
28170;SDS011;15458;53.346;-1.688;2023-04-03T04:40:03;8.48;;;2.35;;
28170;SDS011;15458;53.346;-1.688;2023-04-03T04:42:29;5.60;;;2.42;;
28170;SDS011;15458;53.346;-1.688;2023-04-03T04:44:55;6.30;;;2.38;;
28170;SDS011;15458;53.346;-1.688;2023-04-03T04:47:20;9.80;;;2.80;;
28170;SDS011;15458;53.346;-1.688;2023-04-03T04:49:46;8.88;;;2.90;;
28170;SDS011;15458;53.346;-1.688;2023-04-03T04:52:12;8.18;;;2.50;;
28170;SDS011;15458;53.346;-1.688;2023-04-03T04:54:38;5.90;;;2.42;;
28170;SDS011;15458;53.346;-1.688;2023-04-03T04:57:04;5.00;;;2.30;;
28170;SDS011;15458;53.346;-1.688;2023-04-03T04:59:30;9.95;;;2.35;;
28170;SDS011;15458;53.346;-1.688;2023-04-03T05:01:56;6.47;;;2.55;;
28170;SDS011;15458;53.346;-1.688;2023-04-03T05:04:21;9.98;;;2.70;;
28170;SDS011;15458;53.346;-1.688;2023-04-03T05:06:47;10.35;;;4.03;;
28170;SDS011;15458;53.346;-1.688;2023-04-03T05:09:13;7.13;;;3.40;;
28170;SDS011;15458;53.346;-1.688;2023-04-03T05:11:39;10.32;;;3.10;;
28170;SDS011;15458;53.346;-1.688;2023-04-03T05:14:04;9.00;;;2.83;;
28170;SDS011;15458;53.346;-1.688;2023-04-03T05:16:31;9.48;;;3.10;;
28170;SDS011;15458;53.346;-1.688;2023-04-03T05:18:57;11.95;;;2.70;;
28170;SDS011;15458;53.346;-1.688;2023-04-03T05:21:23;5.75;;;2.65;;
28170;SDS011;15458;53.346;-1.688;2023-04-03T05:23:51;8.75;;;2.67;;
28170;SDS011;15458;53.346;-1.688;2023-04-03T05:26:17;12.05;;;2.95;;
28170;SDS011;15458;53.346;-1.688;2023-04-03T05:28:43;9.25;;;3.05;;
28170;SDS011;15458;53.346;-1.688;2023-04-03T05:31:08;7.68;;;2.95;;
28170;SDS011;15458;53.346;-1.688;2023-04-03T05:33:34;6.93;;;2.47;;
28170;SDS011;15458;53.346;-1.688;2023-04-03T05:36:03;5.32;;;2.63;;
28170;SDS011;15458;53.346;-1.688;2023-04-03T05:38:30;5.77;;;2.77;;
28170;SDS011;15458;53.346;-1.688;2023-04-03T05:40:56;9.32;;;2.33;;
28170;SDS011;15458;53.346;-1.688;2023-04-03T05:43:22;5.85;;;2.65;;
28170;SDS011;15458;53.346;-1.688;2023-04-03T05:45:48;9.50;;;2.42;;
28170;SDS011;15458;53.346;-1.688;2023-04-03T05:48:13;7.60;;;3.95;;
28170;SDS011;15458;53.346;-1.688;2023-04-03T05:50:39;7.45;;;3.70;;
28170;SDS011;15458;53.346;-1.688;2023-04-03T05:53:07;6.38;;;3.45;;
28170;SDS011;15458;53.346;-1.688;2023-04-03T05:55:46;10.05;;;3.63;;
28170;SDS011;15458;53.346;-1.688;2023-04-03T05:58:11;9.93;;;3.83;;
28170;SDS011;15458;53.346;-1.688;2023-04-03T06:00:37;9.32;;;4.07;;
28170;SDS011;15458;53.346;-1.688;2023-04-03T06:03:03;8.35;;;3.53;;
28170;SDS011;15458;53.346;-1.688;2023-04-03T06:05:28;7.05;;;3.50;;
28170;SDS011;15458;53.346;-1.688;2023-04-03T06:07:54;9.27;;;3.78;;
28170;SDS011;15458;53.346;-1.688;2023-04-03T06:10:20;10.75;;;4.13;;
28170;SDS011;15458;53.346;-1.688;2023-04-03T06:12:46;10.38;;;3.92;;
28170;SDS011;15458;53.346;-1.688;2023-04-03T06:15:12;6.50;;;3.75;;
28170;SDS011;15458;53.346;-1.688;2023-04-03T06:17:37;10.90;;;3.78;;
28170;SDS011;15458;53.346;-1.688;2023-04-03T06:20:03;5.13;;;3.10;;
28170;SDS011;15458;53.346;-1.688;2023-04-03T06:22:29;11.25;;;3.22;;
28170;SDS011;15458;53.346;-1.688;2023-04-03T06:24:56;9.98;;;3.80;;
28170;SDS011;15458;53.346;-1.688;2023-04-03T06:27:22;6.13;;;2.63;;
28170;SDS011;15458;53.346;-1.688;2023-04-03T06:29:48;9.68;;;3.35;;
28170;SDS011;15458;53.346;-1.688;2023-04-03T06:32:14;7.93;;;2.95;;
28170;SDS011;15458;53.346;-1.688;2023-04-03T06:34:40;5.07;;;2.72;;
28170;SDS011;15458;53.346;-1.688;2023-04-03T06:37:10;10.80;;;3.53;;
28170;SDS011;15458;53.346;-1.688;2023-04-03T06:39:40;12.73;;;4.05;;
28170;SDS011;15458;53.346;-1.688;2023-04-03T06:42:06;12.90;;;4.95;;
28170;SDS011;15458;53.346;-1.688;2023-04-03T06:44:32;10.65;;;4.28;;
28170;SDS011;15458;53.346;-1.688;2023-04-03T06:46:59;10.82;;;4.38;;
28170;SDS011;15458;53.346;-1.688;2023-04-03T06:49:27;11.10;;;4.35;;
28170;SDS011;15458;53.346;-1.688;2023-04-03T06:51:53;10.10;;;4.20;;
28170;SDS011;15458;53.346;-1.688;2023-04-03T06:54:20;11.63;;;3.90;;
28170;SDS011;15458;53.346;-1.688;2023-04-03T06:56:46;16.48;;;4.25;;
28170;SDS011;15458;53.346;-1.688;2023-04-03T06:59:11;10.60;;;4.32;;
28170;SDS011;15458;53.346;-1.688;2023-04-03T07:01:38;11.55;;;3.83;;
28170;SDS011;15458;53.346;-1.688;2023-04-03T07:04:05;14.18;;;4.63;;
28170;SDS011;15458;53.346;-1.688;2023-04-03T07:06:32;13.65;;;4.68;;
28170;SDS011;15458;53.346;-1.688;2023-04-03T07:08:58;14.90;;;5.32;;
28170;SDS011;15458;53.346;-1.688;2023-04-03T07:11:25;14.82;;;4.85;;
28170;SDS011;15458;53.346;-1.688;2023-04-03T07:13:51;15.98;;;4.35;;
28170;SDS011;15458;53.346;-1.688;2023-04-03T07:16:17;11.95;;;4.43;;
28170;SDS011;15458;53.346;-1.688;2023-04-03T07:18:44;10.73;;;4.63;;
28170;SDS011;15458;53.346;-1.688;2023-04-03T07:21:10;13.65;;;4.55;;
28170;SDS011;15458;53.346;-1.688;2023-04-03T07:23:36;12.52;;;6.28;;
28170;SDS011;15458;53.346;-1.688;2023-04-03T07:26:02;13.88;;;5.47;;
28170;SDS011;15458;53.346;-1.688;2023-04-03T07:28:28;11.52;;;5.38;;
28170;SDS011;15458;53.346;-1.688;2023-04-03T07:31:04;12.75;;;5.07;;
28170;SDS011;15458;53.346;-1.688;2023-04-03T07:33:33;13.75;;;5.32;;
28170;SDS011;15458;53.346;-1.688;2023-04-03T07:35:59;18.90;;;5.85;;
28170;SDS011;15458;53.346;-1.688;2023-04-03T07:38:26;16.85;;;6.20;;
28170;SDS011;15458;53.346;-1.688;2023-04-03T07:40:52;16.27;;;6.95;;
28170;SDS011;15458;53.346;-1.688;2023-04-03T07:43:18;20.55;;;7.63;;
28170;SDS011;15458;53.346;-1.688;2023-04-03T07:45:45;14.77;;;6.10;;
28170;SDS011;15458;53.346;-1.688;2023-04-03T07:48:14;16.38;;;5.53;;
28170;SDS011;15458;53.346;-1.688;2023-04-03T07:50:45;13.55;;;5.70;;
28170;SDS011;15458;53.346;-1.688;2023-04-03T07:53:11;16.08;;;5.70;;
28170;SDS011;15458;53.346;-1.688;2023-04-03T07:55:37;20.35;;;6.00;;
28170;SDS011;15458;53.346;-1.688;2023-04-03T08:00:34;12.80;;;4.75;;
28170;SDS011;15458;53.346;-1.688;2023-04-03T08:03:00;17.45;;;5.10;;
28170;SDS011;15458;53.346;-1.688;2023-04-03T08:05:26;16.20;;;5.60;;
28170;SDS011;15458;53.346;-1.688;2023-04-03T08:07:52;13.57;;;4.63;;
28170;SDS011;15458;53.346;-1.688;2023-04-03T08:10:17;11.65;;;5.05;;
28170;SDS011;15458;53.346;-1.688;2023-04-03T08:12:45;18.98;;;6.47;;
28170;SDS011;15458;53.346;-1.688;2023-04-03T08:15:12;18.27;;;6.05;;
28170;SDS011;15458;53.346;-1.688;2023-04-03T08:17:37;14.65;;;5.35;;
28170;SDS011;15458;53.346;-1.688;2023-04-03T08:20:06;11.95;;;4.65;;
28170;SDS011;15458;53.346;-1.688;2023-04-03T08:22:33;18.63;;;4.47;;
28170;SDS011;15458;53.346;-1.688;2023-04-03T08:24:59;18.42;;;5.25;;
28170;SDS011;15458;53.346;-1.688;2023-04-03T08:27:26;12.75;;;3.78;;
28170;SDS011;15458;53.346;-1.688;2023-04-03T08:29:53;13.82;;;5.53;;
28170;SDS011;15458;53.346;-1.688;2023-04-03T08:32:20;9.82;;;4.70;;
28170;SDS011;15458;53.346;-1.688;2023-04-03T08:34:45;19.40;;;6.25;;
28170;SDS011;15458;53.346;-1.688;2023-04-03T08:37:11;14.60;;;5.45;;
28170;SDS011;15458;53.346;-1.688;2023-04-03T08:39:37;13.55;;;3.60;;
28170;SDS011;15458;53.346;-1.688;2023-04-03T08:42:05;9.00;;;2.40;;
28170;SDS011;15458;53.346;-1.688;2023-04-03T08:44:55;8.88;;;2.65;;
28170;SDS011;15458;53.346;-1.688;2023-04-03T08:47:28;7.72;;;1.58;;
28170;SDS011;15458;53.346;-1.688;2023-04-03T08:49:59;9.60;;;1.70;;
28170;SDS011;15458;53.346;-1.688;2023-04-03T08:53:01;6.85;;;2.53;;
28170;SDS011;15458;53.346;-1.688;2023-04-03T08:55:25;13.95;;;1.98;;
28170;SDS011;15458;53.346;-1.688;2023-04-03T08:58:17;6.20;;;1.30;;
28170;SDS011;15458;53.346;-1.688;2023-04-03T09:01:02;9.68;;;1.20;;
28170;SDS011;15458;53.346;-1.688;2023-04-03T09:03:34;4.95;;;1.20;;
28170;SDS011;15458;53.346;-1.688;2023-04-03T09:06:03;8.18;;;0.98;;
28170;SDS011;15458;53.346;-1.688;2023-04-03T09:16:58;4.30;;;1.10;;
28170;SDS011;15458;53.346;-1.688;2023-04-03T09:19:38;8.20;;;1.42;;
28170;SDS011;15458;53.346;-1.688;2023-04-03T09:22:19;7.00;;;1.13;;
28170;SDS011;15458;53.346;-1.688;2023-04-03T09:24:58;7.20;;;1.17;;
28170;SDS011;15458;53.346;-1.688;2023-04-03T09:27:39;5.82;;;1.45;;
28170;SDS011;15458;53.346;-1.688;2023-04-03T09:30:05;10.98;;;1.45;;
28170;SDS011;15458;53.346;-1.688;2023-04-03T09:32:34;8.60;;;1.90;;
28170;SDS011;15458;53.346;-1.688;2023-04-03T09:35:13;4.72;;;1.75;;
28170;SDS011;15458;53.346;-1.688;2023-04-03T09:37:48;6.93;;;1.70;;
28170;SDS011;15458;53.346;-1.688;2023-04-03T09:42:52;4.85;;;1.45;;
28170;SDS011;15458;53.346;-1.688;2023-04-03T09:45:23;6.97;;;1.38;;
28170;SDS011;15458;53.346;-1.688;2023-04-03T09:50:38;6.75;;;1.70;;
28170;SDS011;15458;53.346;-1.688;2023-04-03T09:53:24;7.38;;;1.60;;
28170;SDS011;15458;53.346;-1.688;2023-04-03T09:56:01;6.00;;;2.03;;
28170;SDS011;15458;53.346;-1.688;2023-04-03T10:01:32;13.65;;;2.45;;
28170;SDS011;15458;53.346;-1.688;2023-04-03T10:06:45;5.75;;;2.00;;
28170;SDS011;15458;53.346;-1.688;2023-04-03T10:09:26;8.68;;;2.17;;
28170;SDS011;15458;53.346;-1.688;2023-04-03T10:14:39;5.28;;;1.60;;
28170;SDS011;15458;53.346;-1.688;2023-04-03T10:23:15;8.98;;;2.53;;
28170;SDS011;15458;53.346;-1.688;2023-04-03T10:34:01;6.28;;;1.80;;
28170;SDS011;15458;53.346;-1.688;2023-04-03T10:45:14;4.85;;;1.65;;
28170;SDS011;15458;53.346;-1.688;2023-04-03T10:53:24;8.50;;;1.40;;
28170;SDS011;15458;53.346;-1.688;2023-04-03T10:59:02;6.65;;;1.10;;
28170;SDS011;15458;53.346;-1.688;2023-04-03T11:01:38;5.65;;;1.42;;
28170;SDS011;15458;53.346;-1.688;2023-04-03T11:04:08;5.88;;;1.77;;
28170;SDS011;15458;53.346;-1.688;2023-04-03T11:07:19;4.82;;;1.08;;
28170;SDS011;15458;53.346;-1.688;2023-04-03T11:09:33;5.45;;;1.20;;
28170;SDS011;15458;53.346;-1.688;2023-04-03T11:12:17;6.03;;;1.48;;
28170;SDS011;15458;53.346;-1.688;2023-04-03T11:14:48;9.18;;;1.50;;
28170;SDS011;15458;53.346;-1.688;2023-04-03T11:22:23;8.65;;;1.35;;
28170;SDS011;15458;53.346;-1.688;2023-04-03T11:25:37;7.93;;;1.77;;
28170;SDS011;15458;53.346;-1.688;2023-04-03T11:27:45;5.75;;;1.65;;
28170;SDS011;15458;53.346;-1.688;2023-04-03T11:30:23;9.95;;;1.58;;
28170;SDS011;15458;53.346;-1.688;2023-04-03T11:35:25;5.30;;;1.27;;
28170;SDS011;15458;53.346;-1.688;2023-04-03T11:37:52;6.90;;;1.73;;
28170;SDS011;15458;53.346;-1.688;2023-04-03T11:40:25;8.18;;;1.80;;
28170;SDS011;15458;53.346;-1.688;2023-04-03T11:45:54;3.67;;;1.77;;
28170;SDS011;15458;53.346;-1.688;2023-04-03T11:51:01;11.45;;;2.03;;
28170;SDS011;15458;53.346;-1.688;2023-04-03T11:53:47;7.25;;;1.50;;
28170;SDS011;15458;53.346;-1.688;2023-04-03T12:04:12;10.13;;;1.80;;
28170;SDS011;15458;53.346;-1.688;2023-04-03T12:09:23;8.90;;;1.60;;
28170;SDS011;15458;53.346;-1.688;2023-04-03T12:11:51;6.22;;;2.20;;
28170;SDS011;15458;53.346;-1.688;2023-04-03T12:14:17;5.88;;;1.80;;
28170;SDS011;15458;53.346;-1.688;2023-04-03T12:16:44;5.95;;;1.70;;
28170;SDS011;15458;53.346;-1.688;2023-04-03T12:24:26;6.32;;;1.40;;
28170;SDS011;15458;53.346;-1.688;2023-04-03T12:29:27;6.72;;;1.95;;
28170;SDS011;15458;53.346;-1.688;2023-04-03T12:32:23;6.85;;;1.65;;
28170;SDS011;15458;53.346;-1.688;2023-04-03T12:41:18;9.52;;;2.90;;
28170;SDS011;15458;53.346;-1.688;2023-04-03T12:44:13;9.77;;;3.13;;
28170;SDS011;15458;53.346;-1.688;2023-04-03T12:49:54;10.57;;;2.78;;
28170;SDS011;15458;53.346;-1.688;2023-04-03T12:54:58;10.63;;;3.40;;
28170;SDS011;15458;53.346;-1.688;2023-04-03T12:57:29;6.75;;;2.70;;
28170;SDS011;15458;53.346;-1.688;2023-04-03T12:59:55;4.95;;;1.85;;
28170;SDS011;15458;53.346;-1.688;2023-04-03T13:02:26;7.53;;;1.67;;
28170;SDS011;15458;53.346;-1.688;2023-04-03T13:04:57;6.30;;;1.70;;
28170;SDS011;15458;53.346;-1.688;2023-04-03T13:07:33;6.15;;;1.50;;
28170;SDS011;15458;53.346;-1.688;2023-04-03T13:12:32;9.10;;;2.53;;
28170;SDS011;15458;53.346;-1.688;2023-04-03T13:15:21;6.18;;;1.85;;
28170;SDS011;15458;53.346;-1.688;2023-04-03T13:17:47;3.08;;;1.50;;
28170;SDS011;15458;53.346;-1.688;2023-04-03T13:20:22;8.20;;;1.70;;
28170;SDS011;15458;53.346;-1.688;2023-04-03T13:25:20;8.25;;;1.90;;
28170;SDS011;15458;53.346;-1.688;2023-04-03T13:27:47;5.63;;;1.70;;
28170;SDS011;15458;53.346;-1.688;2023-04-03T13:30:33;4.85;;;1.73;;
28170;SDS011;15458;53.346;-1.688;2023-04-03T13:33:02;10.00;;;2.13;;
28170;SDS011;15458;53.346;-1.688;2023-04-03T13:37:59;8.02;;;1.80;;
28170;SDS011;15458;53.346;-1.688;2023-04-03T13:40:27;9.40;;;2.00;;
28170;SDS011;15458;53.346;-1.688;2023-04-03T13:43:00;5.95;;;1.70;;
28170;SDS011;15458;53.346;-1.688;2023-04-03T13:45:53;12.88;;;1.60;;
28170;SDS011;15458;53.346;-1.688;2023-04-03T13:48:40;8.38;;;1.63;;
28170;SDS011;15458;53.346;-1.688;2023-04-03T13:53:45;5.60;;;1.73;;
28170;SDS011;15458;53.346;-1.688;2023-04-03T13:56:25;5.72;;;1.85;;
28170;SDS011;15458;53.346;-1.688;2023-04-03T14:01:34;5.72;;;2.13;;
28170;SDS011;15458;53.346;-1.688;2023-04-03T14:04:11;9.68;;;2.38;;
28170;SDS011;15458;53.346;-1.688;2023-04-03T14:06:42;6.38;;;2.03;;
28170;SDS011;15458;53.346;-1.688;2023-04-03T14:09:07;5.63;;;1.80;;
28170;SDS011;15458;53.346;-1.688;2023-04-03T14:11:33;3.90;;;1.73;;
28170;SDS011;15458;53.346;-1.688;2023-04-03T14:14:01;3.53;;;1.52;;
28170;SDS011;15458;53.346;-1.688;2023-04-03T14:16:31;3.67;;;1.50;;
28170;SDS011;15458;53.346;-1.688;2023-04-03T14:19:02;8.52;;;2.33;;
28170;SDS011;15458;53.346;-1.688;2023-04-03T14:21:27;6.65;;;1.90;;
28170;SDS011;15458;53.346;-1.688;2023-04-03T14:23:53;4.43;;;1.55;;
28170;SDS011;15458;53.346;-1.688;2023-04-03T14:26:20;6.88;;;1.95;;
28170;SDS011;15458;53.346;-1.688;2023-04-03T14:28:49;6.63;;;2.08;;
28170;SDS011;15458;53.346;-1.688;2023-04-03T14:31:17;6.97;;;2.08;;
28170;SDS011;15458;53.346;-1.688;2023-04-03T14:33:43;5.93;;;1.90;;
28170;SDS011;15458;53.346;-1.688;2023-04-03T14:36:14;4.53;;;1.77;;
28170;SDS011;15458;53.346;-1.688;2023-04-03T14:38:42;8.15;;;2.35;;
28170;SDS011;15458;53.346;-1.688;2023-04-03T14:41:10;6.28;;;2.10;;
28170;SDS011;15458;53.346;-1.688;2023-04-03T14:43:39;8.38;;;2.20;;
28170;SDS011;15458;53.346;-1.688;2023-04-03T14:46:05;7.22;;;1.90;;
28170;SDS011;15458;53.346;-1.688;2023-04-03T14:48:40;2.40;;;1.45;;
28170;SDS011;15458;53.346;-1.688;2023-04-03T14:51:06;4.55;;;2.08;;
28170;SDS011;15458;53.346;-1.688;2023-04-03T14:53:32;4.78;;;1.75;;
28170;SDS011;15458;53.346;-1.688;2023-04-03T14:55:58;5.32;;;1.83;;
28170;SDS011;15458;53.346;-1.688;2023-04-03T14:58:23;7.95;;;2.20;;
28170;SDS011;15458;53.346;-1.688;2023-04-03T15:00:49;2.83;;;1.77;;
28170;SDS011;15458;53.346;-1.688;2023-04-03T15:03:15;7.72;;;2.35;;
28170;SDS011;15458;53.346;-1.688;2023-04-03T15:05:43;9.98;;;2.50;;
28170;SDS011;15458;53.346;-1.688;2023-04-03T15:08:17;11.27;;;2.47;;
28170;SDS011;15458;53.346;-1.688;2023-04-03T15:10:46;5.75;;;2.38;;
28170;SDS011;15458;53.346;-1.688;2023-04-03T15:13:12;7.25;;;2.10;;
28170;SDS011;15458;53.346;-1.688;2023-04-03T15:15:38;8.82;;;2.25;;
28170;SDS011;15458;53.346;-1.688;2023-04-03T15:18:04;4.07;;;1.75;;
28170;SDS011;15458;53.346;-1.688;2023-04-03T15:20:30;3.97;;;1.67;;
28170;SDS011;15458;53.346;-1.688;2023-04-03T15:22:58;4.18;;;1.60;;
28170;SDS011;15458;53.346;-1.688;2023-04-03T15:25:28;7.45;;;1.92;;
28170;SDS011;15458;53.346;-1.688;2023-04-03T15:27:54;6.47;;;1.95;;
28170;SDS011;15458;53.346;-1.688;2023-04-03T15:30:21;8.90;;;2.13;;
28170;SDS011;15458;53.346;-1.688;2023-04-03T15:32:47;4.45;;;1.60;;
28170;SDS011;15458;53.346;-1.688;2023-04-03T15:35:13;3.45;;;1.88;;
28170;SDS011;15458;53.346;-1.688;2023-04-03T15:37:39;10.90;;;2.63;;
28170;SDS011;15458;53.346;-1.688;2023-04-03T15:40:05;6.55;;;2.05;;
28170;SDS011;15458;53.346;-1.688;2023-04-03T15:42:32;7.70;;;2.28;;
28170;SDS011;15458;53.346;-1.688;2023-04-03T15:44:58;7.80;;;2.35;;
28170;SDS011;15458;53.346;-1.688;2023-04-03T15:47:24;4.50;;;2.00;;
28170;SDS011;15458;53.346;-1.688;2023-04-03T15:49:50;8.02;;;2.08;;
28170;SDS011;15458;53.346;-1.688;2023-04-03T15:52:16;3.95;;;1.70;;
28170;SDS011;15458;53.346;-1.688;2023-04-03T15:54:42;4.95;;;2.20;;
28170;SDS011;15458;53.346;-1.688;2023-04-03T15:57:07;9.48;;;2.00;;
28170;SDS011;15458;53.346;-1.688;2023-04-03T15:59:33;8.38;;;2.28;;
28170;SDS011;15458;53.346;-1.688;2023-04-03T16:01:59;7.28;;;2.25;;
28170;SDS011;15458;53.346;-1.688;2023-04-03T16:04:26;4.90;;;1.60;;
28170;SDS011;15458;53.346;-1.688;2023-04-03T16:06:52;3.85;;;2.03;;
28170;SDS011;15458;53.346;-1.688;2023-04-03T16:09:18;8.00;;;1.85;;
28170;SDS011;15458;53.346;-1.688;2023-04-03T16:11:44;6.20;;;1.90;;
28170;SDS011;15458;53.346;-1.688;2023-04-03T16:14:10;5.32;;;2.45;;
28170;SDS011;15458;53.346;-1.688;2023-04-03T16:16:36;6.75;;;2.65;;
28170;SDS011;15458;53.346;-1.688;2023-04-03T16:19:02;4.47;;;1.70;;
28170;SDS011;15458;53.346;-1.688;2023-04-03T16:21:29;4.78;;;2.08;;
28170;SDS011;15458;53.346;-1.688;2023-04-03T16:23:58;4.35;;;1.77;;
28170;SDS011;15458;53.346;-1.688;2023-04-03T16:26:24;6.43;;;2.00;;
28170;SDS011;15458;53.346;-1.688;2023-04-03T16:28:51;6.63;;;1.88;;
28170;SDS011;15458;53.346;-1.688;2023-04-03T16:31:17;5.15;;;2.30;;
28170;SDS011;15458;53.346;-1.688;2023-04-03T16:33:43;5.85;;;2.40;;
28170;SDS011;15458;53.346;-1.688;2023-04-03T16:36:09;9.85;;;2.35;;
28170;SDS011;15458;53.346;-1.688;2023-04-03T16:38:35;4.95;;;2.00;;
28170;SDS011;15458;53.346;-1.688;2023-04-03T16:41:01;8.85;;;2.03;;
28170;SDS011;15458;53.346;-1.688;2023-04-03T16:43:29;5.55;;;2.10;;